Park Fletcher, Indiana
Current Conditions -  °F | °C
As of 5:54 PM on Sunday 28 Dec 2014 (Local Time) from KIND Reporting Station
Overcast Overcast  
Wind Chill: 24°   Ceiling: 1600
Heat Index: 29°   Visibility: 10mi
Dew Point: 23°   Wind: 5mph
Humidity: 78%   Direction: 350°N
Pressure: 30.19"   Gusts: NA
Location:  39.7251°N, 86.264°W
Report Text: KIND 282254Z 35004KT 10SM BKN016 OVC180 M02/M05 A3019 RMK AO2 SLP232 T10171050
Loading
Personal Weather Stations






























Interactive Weather Map New forecast layout! Learn more

10-Day Weather Forecast

Advertisements
Track Severe Weather on mobile